Time;durP1;ratioP1;P1;durP2;ratioP2;P2;SDS_P1;SDS_P2;PMS_P1;PMS_P2;Temp;Humidity;BMP_temperature;BMP_pressure;BME280_temperature;BME280_humidity;BME280_pressure;Samples;Min_cycle;Max_cycle;Signal;HPM_P1;HPM_P2
2023/01/19 00:00:38;;;;;;;5.28;4.05;;;;;9.10;99757.00;;;;5050639;28;20743;-76
2023/01/19 00:03:09;;;;;;;5.72;4.28;;;;;9.10;99752.00;;;;5050477;28;20200;-76
2023/01/19 00:05:36;;;;;;;7.97;4.40;;;;;9.20;99753.00;;;;5055488;28;20681;-75
2023/01/19 00:08:14;;;;;;;9.07;4.72;;;;;9.20;99765.00;;;;5054416;28;20533;-75
2023/01/19 00:10:41;;;;;;;5.47;3.83;;;;;9.20;99768.00;;;;5049889;28;20735;-76
2023/01/19 00:13:09;;;;;;;6.95;4.80;;;;;9.20;99753.00;;;;5052652;28;20230;-76
2023/01/19 00:15:36;;;;;;;7.53;4.50;;;;;9.20;99757.00;;;;5069978;28;20207;-75
2023/01/19 00:18:04;;;;;;;6.00;4.43;;;;;9.20;99752.00;;;;5068691;28;20226;-76
2023/01/19 00:20:34;;;;;;;7.82;5.22;;;;;9.20;99752.00;;;;5065601;28;20217;-75
2023/01/19 00:23:01;;;;;;;5.22;4.00;;;;;9.20;99752.00;;;;5052662;28;20282;-76
2023/01/19 00:25:30;;;;;;;5.18;4.28;;;;;9.20;99757.00;;;;5048276;28;20620;-75
2023/01/19 00:27:58;;;;;;;7.35;4.55;;;;;9.20;99755.00;;;;5049405;28;20208;-76
2023/01/19 00:30:25;;;;;;;5.75;4.13;;;;;9.20;99763.00;;;;5049964;28;20575;-75
2023/01/19 00:32:52;;;;;;;7.00;4.65;;;;;9.20;99751.00;;;;5057524;28;20653;-75
2023/01/19 00:35:20;;;;;;;5.40;3.80;;;;;9.20;99758.00;;;;5061000;28;20211;-75
2023/01/19 00:37:47;;;;;;;5.65;4.13;;;;;9.20;99749.00;;;;5049246;28;20228;-76
2023/01/19 00:40:14;;;;;;;6.88;4.00;;;;;9.30;99762.00;;;;5056921;28;20199;-76
2023/01/19 00:42:44;;;;;;;5.85;4.43;;;;;9.20;99771.00;;;;5062761;28;20203;-76
2023/01/19 00:45:13;;;;;;;6.18;4.10;;;;;9.20;99762.00;;;;5049696;28;20200;-76
2023/01/19 00:47:40;;;;;;;6.25;3.92;;;;;9.30;99756.00;;;;5049049;28;20259;-76
2023/01/19 00:50:10;;;;;;;5.90;3.55;;;;;9.30;99762.00;;;;5064941;28;20225;-76
2023/01/19 00:52:38;;;;;;;5.13;3.90;;;;;9.30;99754.00;;;;5059476;28;20199;-75
2023/01/19 00:55:06;;;;;;;5.22;4.53;;;;;9.30;99740.00;;;;5060668;28;20210;-76
2023/01/19 00:57:34;;;;;;;5.97;3.67;;;;;9.30;99752.00;;;;5060572;28;20650;-76
2023/01/19 01:00:05;;;;;;;7.15;4.22;;;;;9.20;99755.00;;;;5067838;28;20199;-76
2023/01/19 01:02:33;;;;;;;4.55;3.60;;;;;9.30;99751.00;;;;5068695;28;20278;-76
2023/01/19 01:05:01;;;;;;;4.65;3.33;;;;;9.30;99749.00;;;;5058124;28;20204;-76
2023/01/19 01:07:30;;;;;;;11.73;3.85;;;;;9.30;99739.00;;;;5050670;28;20195;-76
2023/01/19 01:09:57;;;;;;;5.85;3.33;;;;;9.30;99745.00;;;;5059795;28;20219;-76
2023/01/19 01:12:25;;;;;;;5.18;3.40;;;;;9.20;99752.00;;;;5062150;28;20199;-76
2023/01/19 01:14:52;;;;;;;5.05;2.70;;;;;9.20;99758.00;;;;5061734;28;20198;-76
2023/01/19 01:17:23;;;;;;;3.97;2.58;;;;;9.20;99744.00;;;;5055930;28;20223;-76
2023/01/19 01:19:51;;;;;;;2.42;1.90;;;;;9.20;99764.00;;;;5053608;28;20672;-76
2023/01/19 01:22:19;;;;;;;4.10;1.95;;;;;9.20;99750.00;;;;5048755;28;20208;-76
2023/01/19 01:24:46;;;;;;;2.85;1.92;;;;;9.20;99757.00;;;;5047792;28;20214;-76
2023/01/19 01:27:13;;;;;;;2.42;1.83;;;;;9.10;99761.00;;;;5048919;28;20587;-76
2023/01/19 01:29:45;;;;;;;1.90;1.75;;;;;9.20;99759.00;;;;5048064;28;20211;-77
2023/01/19 01:32:12;;;;;;;1.38;1.15;;;;;9.10;99764.00;;;;5047364;28;20670;-76
2023/01/19 01:34:42;;;;;;;2.17;1.20;;;;;9.10;99773.00;;;;5062186;28;20206;-76
2023/01/19 01:37:10;;;;;;;1.85;1.10;;;;;9.10;99785.00;;;;5066460;28;20225;-76
2023/01/19 01:39:37;;;;;;;0.88;0.60;;;;;9.10;99779.00;;;;5056537;28;20565;-76
2023/01/19 01:42:13;;;;;;;1.35;0.60;;;;;9.10;99786.00;;;;5059015;28;20214;-77
2023/01/19 01:44:59;;;;;;;1.40;0.50;;;;;9.00;99787.00;;;;5067972;28;20206;-76
2023/01/19 01:47:32;;;;;;;1.63;0.50;;;;;9.10;99789.00;;;;5047937;28;20215;-77
2023/01/19 01:50:06;;;;;;;0.63;0.32;;;;;9.10;99783.00;;;;5061341;28;20191;-76
2023/01/19 01:52:38;;;;;;;0.45;0.30;;;;;9.10;99781.00;;;;5058026;28;21004;-76
2023/01/19 01:55:06;;;;;;;0.50;0.20;;;;;9.10;99782.00;;;;5051342;28;20632;-76
2023/01/19 01:57:36;;;;;;;2.05;0.60;;;;;9.10;99785.00;;;;5047986;28;20227;-77
2023/01/19 02:00:05;;;;;;;1.60;0.60;;;;;9.20;99779.00;;;;5051171;28;20238;-76
2023/01/19 02:02:53;;;;;;;1.40;0.80;;;;;9.20;99781.00;;;;5053246;28;20195;-77
2023/01/19 02:05:24;;;;;;;0.75;0.40;;;;;9.20;99781.00;;;;5049578;28;20192;-76
2023/01/19 02:13:30;;;;;;;1.08;0.50;;;;;9.30;99788.00;;;;5053942;28;20198;-77
2023/01/19 02:16:00;;;;;;;0.68;0.40;;;;;9.30;99781.00;;;;5051533;28;20204;-76
2023/01/19 02:18:30;;;;;;;0.35;0.20;;;;;9.30;99783.00;;;;5051318;28;20250;-76
2023/01/19 02:21:09;;;;;;;0.52;0.20;;;;;9.30;99800.00;;;;5052791;28;20202;-76
2023/01/19 02:23:43;;;;;;;2.25;0.45;;;;;9.30;99794.00;;;;5061364;28;20206;-77
2023/01/19 02:26:14;;;;;;;1.05;0.28;;;;;9.40;99790.00;;;;5057372;28;20246;-77
2023/01/19 02:28:44;;;;;;;0.88;0.10;;;;;9.40;99801.00;;;;5047378;28;20581;-76
2023/01/19 02:31:13;;;;;;;1.02;0.25;;;;;9.50;99811.00;;;;5054347;28;20195;-76
2023/01/19 02:33:41;;;;;;;1.75;0.20;;;;;9.50;99813.00;;;;5066270;28;20202;-76
2023/01/19 02:36:11;;;;;;;1.05;0.30;;;;;9.50;99820.00;;;;5057510;28;20740;-76
2023/01/19 02:38:41;;;;;;;1.70;0.10;;;;;9.50;99808.00;;;;5048020;28;20707;-76
2023/01/19 02:41:12;;;;;;;1.27;0.08;;;;;9.50;99817.00;;;;5064037;28;20215;-76
2023/01/19 02:43:40;;;;;;;0.63;0.10;;;;;9.50;99834.00;;;;5063436;28;20201;-77
2023/01/19 02:46:08;;;;;;;2.13;0.25;;;;;9.50;99831.00;;;;5065887;28;20241;-77
2023/01/19 02:48:35;;;;;;;0.25;0.10;;;;;9.50;99837.00;;;;5049224;28;20272;-76
2023/01/19 02:51:11;;;;;;;0.95;0.20;;;;;9.50;99847.00;;;;5053840;28;20207;-77
2023/01/19 02:53:53;;;;;;;2.53;0.20;;;;;9.40;99839.00;;;;5053322;28;20241;-77
2023/01/19 02:56:43;;;;;;;0.50;0.22;;;;;9.30;99857.00;;;;5059498;28;20763;-77
2023/01/19 02:59:17;;;;;;;1.63;0.20;;;;;9.40;99863.00;;;;5054383;28;20234;-77
2023/01/19 03:02:02;;;;;;;1.63;0.30;;;;;9.30;99866.00;;;;5054210;28;20775;-77
2023/01/19 03:04:40;;;;;;;1.45;0.00;;;;;9.40;99865.00;;;;5055306;28;20221;-77
2023/01/19 03:07:11;;;;;;;2.17;0.13;;;;;9.40;99860.00;;;;5051080;28;20203;-77
2023/01/19 03:09:48;;;;;;;0.20;0.00;;;;;9.40;99873.00;;;;5051921;28;20566;-77
2023/01/19 03:12:26;;;;;;;1.55;0.10;;;;;9.30;99874.00;;;;5051131;28;20744;-77
2023/01/19 03:14:57;;;;;;;3.20;0.20;;;;;9.40;99876.00;;;;5070542;28;20203;-77
2023/01/19 03:17:26;;;;;;;2.72;0.10;;;;;9.30;99868.00;;;;5053747;28;20191;-77
2023/01/19 03:19:54;;;;;;;1.38;0.10;;;;;9.30;99866.00;;;;5066971;28;20680;-78
2023/01/19 03:22:25;;;;;;;1.45;0.55;;;;;9.30;99864.00;;;;5064462;28;20626;-77
2023/01/19 03:24:56;;;;;;;0.45;0.10;;;;;9.30;99867.00;;;;5051760;28;20202;-77
2023/01/19 03:27:29;;;;;;;2.13;0.22;;;;;9.30;99860.00;;;;5052418;28;20211;-77
2023/01/19 03:29:59;;;;;;;0.28;0.00;;;;;9.30;99864.00;;;;5058189;28;20195;-77
2023/01/19 03:32:31;;;;;;;0.03;0.00;;;;;9.30;99848.00;;;;5050872;28;20227;-77
2023/01/19 03:35:01;;;;;;;0.38;0.10;;;;;9.30;99871.00;;;;5050874;28;20620;-77
2023/01/19 03:37:33;;;;;;;0.28;0.08;;;;;9.30;99875.00;;;;5050771;28;20203;-77
2023/01/19 03:40:02;;;;;;;0.30;0.10;;;;;9.40;99885.00;;;;5060273;28;20210;-77
2023/01/19 03:42:29;;;;;;;0.52;0.05;;;;;9.40;99875.00;;;;5061987;28;20216;-77
2023/01/19 03:44:59;;;;;;;0.30;0.10;;;;;9.40;99879.00;;;;5051069;28;20188;-77
2023/01/19 03:47:27;;;;;;;0.30;0.10;;;;;9.40;99871.00;;;;5059427;28;20234;-77
2023/01/19 03:49:56;;;;;;;0.32;0.08;;;;;9.40;99874.00;;;;5060528;28;20203;-77
2023/01/19 03:52:32;;;;;;;0.65;0.20;;;;;9.30;99885.00;;;;5056891;28;20187;-77
2023/01/19 03:55:02;;;;;;;0.43;0.00;;;;;9.30;99889.00;;;;5059716;28;20576;-77
2023/01/19 03:57:30;;;;;;;0.50;0.10;;;;;9.30;99914.00;;;;5057045;28;20191;-77
2023/01/19 03:59:57;;;;;;;0.75;0.10;;;;;9.30;99906.00;;;;5057171;28;20209;-77
2023/01/19 04:02:25;;;;;;;0.30;0.10;;;;;9.30;99912.00;;;;5062091;28;20196;-77
2023/01/19 04:04:53;;;;;;;0.32;0.08;;;;;9.20;99910.00;;;;5050184;28;20196;-77
2023/01/19 04:07:20;;;;;;;0.15;0.00;;;;;9.20;99915.00;;;;5053283;28;20192;-77
2023/01/19 04:09:47;;;;;;;0.82;0.30;;;;;9.20;99906.00;;;;5059678;28;20199;-77
2023/01/19 04:12:16;;;;;;;1.15;0.10;;;;;9.10;99908.00;;;;5050385;28;20202;-77
2023/01/19 04:14:43;;;;;;;0.82;0.10;;;;;9.10;99900.00;;;;5062446;28;20584;-76
2023/01/19 04:17:10;;;;;;;1.58;0.20;;;;;9.10;99895.00;;;;5055647;28;20214;-76
2023/01/19 04:19:38;;;;;;;0.73;0.17;;;;;9.00;99895.00;;;;5056240;28;20630;-77
2023/01/19 04:22:05;;;;;;;0.25;0.17;;;;;9.00;99892.00;;;;5055258;28;20279;-76
2023/01/19 04:24:32;;;;;;;0.15;0.05;;;;;9.00;99890.00;;;;5049528;28;20944;-77
2023/01/19 04:26:59;;;;;;;0.85;0.20;;;;;9.00;99888.00;;;;5066566;28;20202;-77
2023/01/19 04:29:28;;;;;;;0.63;0.10;;;;;8.90;99895.00;;;;5051443;28;20199;-77
2023/01/19 04:31:55;;;;;;;0.15;0.00;;;;;8.90;99891.00;;;;5049650;28;20210;-76
2023/01/19 04:34:23;;;;;;;1.10;0.15;;;;;8.90;99884.00;;;;5059990;28;20198;-76
2023/01/19 04:36:51;;;;;;;0.47;0.17;;;;;8.90;99894.00;;;;5059219;28;20532;-76
2023/01/19 04:39:18;;;;;;;0.43;0.13;;;;;8.90;99892.00;;;;5052889;28;20227;-77
2023/01/19 04:41:45;;;;;;;0.75;0.30;;;;;8.90;99897.00;;;;5051097;28;20223;-76
2023/01/19 04:44:12;;;;;;;0.98;0.20;;;;;8.90;99903.00;;;;5052117;28;20198;-76
2023/01/19 04:46:41;;;;;;;1.23;0.40;;;;;8.90;99908.00;;;;5049512;28;20223;-76
2023/01/19 04:49:09;;;;;;;0.80;0.15;;;;;8.80;99902.00;;;;5052814;28;20576;-76
2023/01/19 04:51:36;;;;;;;0.38;0.10;;;;;8.80;99910.00;;;;5061802;28;20210;-77
2023/01/19 04:54:04;;;;;;;2.20;0.30;;;;;8.80;99909.00;;;;5050032;28;20212;-76
2023/01/19 04:56:31;;;;;;;0.20;0.03;;;;;8.80;99914.00;;;;5057827;28;20541;-76
2023/01/19 04:58:58;;;;;;;0.10;0.00;;;;;8.80;99917.00;;;;5056782;28;20562;-76
2023/01/19 05:01:26;;;;;;;2.45;0.20;;;;;8.80;99930.00;;;;5066385;28;20205;-76
2023/01/19 05:03:54;;;;;;;1.92;0.20;;;;;8.80;99926.00;;;;5053537;28;20208;-76
2023/01/19 05:06:22;;;;;;;0.43;0.20;;;;;8.80;99939.00;;;;5049942;28;20196;-76
2023/01/19 05:08:49;;;;;;;3.47;0.40;;;;;8.80;99937.00;;;;5062712;28;20582;-76
2023/01/19 05:11:16;;;;;;;1.55;0.10;;;;;8.80;99937.00;;;;5058926;28;20198;-76
2023/01/19 05:13:44;;;;;;;1.05;0.20;;;;;8.80;99942.00;;;;5054283;28;20491;-77
2023/01/19 05:16:12;;;;;;;2.65;0.50;;;;;8.80;99956.00;;;;5064187;28;20564;-76
2023/01/19 05:18:40;;;;;;;1.20;0.10;;;;;8.90;99970.00;;;;5061415;28;20223;-76
2023/01/19 05:21:09;;;;;;;2.58;0.40;;;;;8.80;99979.00;;;;5058833;28;20203;-77
2023/01/19 05:23:36;;;;;;;1.05;0.10;;;;;8.90;99969.00;;;;5060746;28;20198;-77
2023/01/19 05:26:04;;;;;;;0.73;0.20;;;;;8.90;99961.00;;;;5048773;28;20205;-77
2023/01/19 05:28:32;;;;;;;0.70;0.43;;;;;8.90;99954.00;;;;5057827;28;20235;-76
2023/01/19 05:31:00;;;;;;;2.20;0.10;;;;;8.90;99955.00;;;;5060892;28;20194;-77
2023/01/19 05:33:27;;;;;;;3.60;0.50;;;;;8.90;99959.00;;;;5066273;28;20282;-77
2023/01/19 05:35:55;;;;;;;8.20;0.82;;;;;8.90;99965.00;;;;5064104;28;20252;-77
2023/01/19 05:38:24;;;;;;;0.80;0.30;;;;;8.90;99967.00;;;;5062335;28;20222;-77
2023/01/19 05:40:57;;;;;;;4.95;0.40;;;;;8.90;99967.00;;;;5059811;28;20225;-77
2023/01/19 05:43:25;;;;;;;1.35;0.22;;;;;9.00;99964.00;;;;5048304;28;20218;-77
2023/01/19 05:45:52;;;;;;;1.70;0.40;;;;;9.00;99964.00;;;;5056098;28;20211;-77
2023/01/19 05:48:19;;;;;;;2.30;0.25;;;;;9.00;99969.00;;;;5056422;28;20199;-77
2023/01/19 05:50:48;;;;;;;3.30;0.45;;;;;9.10;99965.00;;;;5048244;28;20274;-77
2023/01/19 05:53:15;;;;;;;1.85;0.20;;;;;9.10;99969.00;;;;5059530;28;20215;-77
2023/01/19 05:55:44;;;;;;;2.15;0.60;;;;;9.10;99976.00;;;;5066848;28;20668;-77
2023/01/19 05:58:11;;;;;;;1.45;0.40;;;;;9.10;99976.00;;;;5049814;28;20195;-76
2023/01/19 06:00:38;;;;;;;8.48;0.85;;;;;9.10;99973.00;;;;5051286;28;20203;-76
2023/01/19 06:03:06;;;;;;;5.05;0.50;;;;;9.20;99976.00;;;;5048589;28;20533;-76
2023/01/19 06:05:34;;;;;;;2.15;0.50;;;;;9.20;99988.00;;;;5058083;28;20612;-76
2023/01/19 06:08:01;;;;;;;2.25;0.63;;;;;9.20;99981.00;;;;5062591;28;20576;-76
2023/01/19 06:10:29;;;;;;;1.75;0.45;;;;;9.20;99988.00;;;;5067363;28;20215;-76
2023/01/19 06:12:57;;;;;;;1.77;0.30;;;;;9.20;99990.00;;;;5067677;28;20198;-76
2023/01/19 06:15:24;;;;;;;1.27;0.38;;;;;9.20;99992.00;;;;5067222;28;20213;-76
2023/01/19 06:17:52;;;;;;;1.65;0.52;;;;;9.20;100004.00;;;;5059370;28;20212;-76
2023/01/19 06:20:19;;;;;;;1.40;0.40;;;;;9.20;100002.00;;;;5058831;28;20227;-77
2023/01/19 06:22:47;;;;;;;0.65;0.28;;;;;9.10;100002.00;;;;5047948;28;20216;-76
2023/01/19 06:25:14;;;;;;;2.38;0.70;;;;;9.10;100008.00;;;;5047686;28;20277;-76
2023/01/19 06:27:45;;;;;;;1.25;0.40;;;;;9.10;100007.00;;;;5055058;28;20191;-76
2023/01/19 06:30:14;;;;;;;2.20;0.50;;;;;9.10;100009.00;;;;5065924;28;20209;-76
2023/01/19 06:32:41;;;;;;;3.70;0.60;;;;;9.10;100014.00;;;;5056335;28;20195;-77
2023/01/19 06:35:09;;;;;;;1.25;0.43;;;;;9.10;100009.00;;;;5064390;28;20203;-76
2023/01/19 06:37:37;;;;;;;1.40;0.60;;;;;9.10;100028.00;;;;5064250;28;20187;-76
2023/01/19 06:40:05;;;;;;;1.23;0.50;;;;;9.10;100032.00;;;;5067698;28;20234;-76
2023/01/19 06:42:33;;;;;;;1.63;0.40;;;;;9.20;100029.00;;;;5051514;28;20230;-76
2023/01/19 06:45:00;;;;;;;1.83;0.65;;;;;9.20;100039.00;;;;5057313;28;20244;-76
2023/01/19 06:47:29;;;;;;;3.15;0.60;;;;;9.10;100030.00;;;;5053971;28;20238;-76
2023/01/19 06:49:56;;;;;;;1.20;0.70;;;;;9.10;100042.00;;;;5048662;28;20195;-76
2023/01/19 06:52:23;;;;;;;1.73;0.70;;;;;9.10;100050.00;;;;5065694;28;20611;-77
2023/01/19 06:54:51;;;;;;;3.22;0.70;;;;;9.10;100051.00;;;;5053318;28;20235;-76
2023/01/19 06:57:18;;;;;;;4.10;0.77;;;;;9.10;100054.00;;;;5049848;28;20559;-76
2023/01/19 06:59:45;;;;;;;3.05;0.60;;;;;9.10;100055.00;;;;5049447;28;20265;-77
2023/01/19 07:02:17;;;;;;;1.45;0.68;;;;;9.10;100064.00;;;;5047546;28;20196;-80
2023/01/19 07:04:45;;;;;;;1.10;0.60;;;;;9.10;100074.00;;;;5047100;28;20769;-76
2023/01/19 07:07:13;;;;;;;3.55;0.80;;;;;9.10;100065.00;;;;5055979;28;20748;-76
2023/01/19 07:09:40;;;;;;;2.85;0.85;;;;;9.00;100073.00;;;;5057205;28;20198;-76
2023/01/19 07:12:08;;;;;;;3.28;0.70;;;;;9.00;100084.00;;;;5054486;28;20649;-76
2023/01/19 07:14:35;;;;;;;1.75;0.70;;;;;9.00;100080.00;;;;5061298;28;20195;-76
2023/01/19 07:17:02;;;;;;;2.67;1.17;;;;;9.00;100090.00;;;;5047167;28;20196;-77
2023/01/19 07:19:30;;;;;;;2.90;1.15;;;;;9.00;100090.00;;;;5048844;28;20226;-76
2023/01/19 07:21:58;;;;;;;1.92;0.98;;;;;9.00;100092.00;;;;5054613;28;20690;-77
2023/01/19 07:24:26;;;;;;;5.50;1.00;;;;;8.90;100099.00;;;;5047480;28;20275;-76
2023/01/19 07:26:53;;;;;;;1.05;0.57;;;;;8.90;100104.00;;;;5049584;28;20195;-76
2023/01/19 07:29:20;;;;;;;3.67;0.82;;;;;8.90;100109.00;;;;5051061;28;20208;-76
2023/01/19 07:31:48;;;;;;;3.60;0.73;;;;;8.80;100109.00;;;;5065656;28;20203;-76
2023/01/19 07:34:16;;;;;;;3.58;0.90;;;;;8.80;100121.00;;;;5068751;28;20202;-76
2023/01/19 07:36:43;;;;;;;2.90;0.98;;;;;8.80;100126.00;;;;5068996;28;20646;-76
2023/01/19 07:39:12;;;;;;;3.67;1.02;;;;;8.70;100112.00;;;;5050564;28;20227;-76
2023/01/19 07:41:39;;;;;;;2.88;0.70;;;;;8.70;100118.00;;;;5050513;28;20219;-76
2023/01/19 07:44:07;;;;;;;2.78;0.68;;;;;8.70;100123.00;;;;5050972;28;20219;-76
2023/01/19 07:46:34;;;;;;;3.17;0.82;;;;;8.70;100121.00;;;;5069482;28;20680;-75
2023/01/19 07:49:02;;;;;;;2.72;1.10;;;;;8.70;100128.00;;;;5059072;28;20531;-76
2023/01/19 07:51:29;;;;;;;2.15;0.95;;;;;8.70;100136.00;;;;5070694;28;20253;-76
2023/01/19 07:53:57;;;;;;;2.83;0.90;;;;;8.70;100139.00;;;;5048977;28;20207;-76
2023/01/19 07:56:26;;;;;;;3.72;1.00;;;;;8.70;100144.00;;;;5049737;28;20287;-78
2023/01/19 07:58:54;;;;;;;3.17;0.65;;;;;8.70;100144.00;;;;5050081;28;20294;-77
2023/01/19 08:01:22;;;;;;;2.13;0.63;;;;;8.70;100141.00;;;;5050738;28;20219;-77
2023/01/19 08:03:49;;;;;;;5.15;1.38;;;;;8.70;100146.00;;;;5053617;28;20253;-77
2023/01/19 08:06:19;;;;;;;7.38;1.40;;;;;8.70;100146.00;;;;5062509;28;20207;-77
2023/01/19 08:08:47;;;;;;;2.85;0.75;;;;;8.70;100144.00;;;;5057990;28;20203;-77
2023/01/19 08:11:14;;;;;;;3.50;1.33;;;;;8.70;100158.00;;;;5056086;28;20206;-77
2023/01/19 08:13:43;;;;;;;4.88;0.98;;;;;8.70;100159.00;;;;5065939;28;20250;-77
2023/01/19 08:16:10;;;;;;;7.07;1.20;;;;;8.70;100169.00;;;;5066578;28;20195;-77
2023/01/19 08:18:38;;;;;;;2.10;0.73;;;;;8.70;100167.00;;;;5056713;28;20199;-77
2023/01/19 08:21:05;;;;;;;3.72;0.90;;;;;8.80;100171.00;;;;5069055;28;20592;-77
2023/01/19 08:23:33;;;;;;;1.77;0.80;;;;;8.80;100174.00;;;;5048951;28;20196;-77
2023/01/19 08:26:00;;;;;;;1.02;0.60;;;;;8.80;100186.00;;;;5064165;28;20657;-77
2023/01/19 08:28:27;;;;;;;3.75;0.77;;;;;8.80;100183.00;;;;5067272;28;20577;-77
2023/01/19 08:30:58;;;;;;;2.40;0.60;;;;;8.80;100177.00;;;;5062882;28;20198;-78
2023/01/19 08:33:25;;;;;;;1.95;0.57;;;;;8.80;100187.00;;;;5061254;28;20194;-77
2023/01/19 08:35:53;;;;;;;3.00;1.00;;;;;8.80;100191.00;;;;5064245;28;20199;-77
2023/01/19 08:38:21;;;;;;;2.00;0.68;;;;;8.80;100186.00;;;;5050430;28;20204;-77
2023/01/19 08:40:49;;;;;;;3.95;0.80;;;;;8.80;100193.00;;;;5069380;28;20239;-77
2023/01/19 08:43:17;;;;;;;4.50;0.73;;;;;8.80;100209.00;;;;5066103;28;20203;-77
2023/01/19 08:45:50;;;;;;;2.85;0.90;;;;;8.80;100207.00;;;;5068021;28;20205;-77
2023/01/19 08:48:21;;;;;;;3.65;1.20;;;;;8.80;100210.00;;;;5069114;28;20195;-77
2023/01/19 08:50:49;;;;;;;2.47;0.82;;;;;8.80;100215.00;;;;5054684;28;20195;-77
2023/01/19 08:53:18;;;;;;;2.92;0.93;;;;;8.90;100215.00;;;;5064514;28;20206;-77
2023/01/19 08:55:45;;;;;;;2.47;1.17;;;;;8.80;100218.00;;;;5055835;28;20198;-77
2023/01/19 08:58:12;;;;;;;4.75;1.13;;;;;8.80;100219.00;;;;5056270;28;20206;-77
2023/01/19 09:00:41;;;;;;;3.03;0.75;;;;;8.90;100230.00;;;;5049919;28;20238;-77
2023/01/19 09:03:11;;;;;;;2.63;1.27;;;;;8.90;100224.00;;;;5049319;28;20768;-77
2023/01/19 09:05:40;;;;;;;3.88;0.95;;;;;8.90;100230.00;;;;5052460;28;20571;-76
2023/01/19 09:08:10;;;;;;;3.78;0.98;;;;;9.00;100240.00;;;;5066897;28;20199;-77
2023/01/19 09:10:38;;;;;;;4.68;0.90;;;;;9.10;100235.00;;;;5057487;28;20199;-76
2023/01/19 09:13:09;;;;;;;4.70;1.70;;;;;9.10;100236.00;;;;5048762;28;20206;-77
2023/01/19 09:15:37;;;;;;;6.20;2.25;;;;;9.20;100234.00;;;;5054573;28;20288;-77
2023/01/19 09:18:05;;;;;;;5.70;1.98;;;;;9.30;100239.00;;;;5049088;28;20200;-77
2023/01/19 09:20:34;;;;;;;4.55;1.65;;;;;9.40;100235.00;;;;5048981;28;20230;-76
2023/01/19 09:23:03;;;;;;;7.13;1.67;;;;;9.50;100246.00;;;;5049024;28;20657;-76
2023/01/19 09:25:31;;;;;;;5.35;1.80;;;;;9.50;100244.00;;;;5048411;28;20222;-76
2023/01/19 09:28:01;;;;;;;5.10;2.38;;;;;9.60;100245.00;;;;5048734;28;20218;-76
2023/01/19 09:30:28;;;;;;;5.47;2.13;;;;;9.70;100248.00;;;;5048543;28;20203;-76
2023/01/19 09:32:55;;;;;;;5.38;1.50;;;;;9.80;100251.00;;;;5063419;28;20194;-77
2023/01/19 09:35:22;;;;;;;4.95;1.75;;;;;9.80;100251.00;;;;5066896;28;20213;-76
2023/01/19 09:37:50;;;;;;;7.30;1.80;;;;;9.90;100249.00;;;;5047445;28;20195;-77
2023/01/19 09:40:23;;;;;;;2.35;1.02;;;;;9.90;100249.00;;;;5048218;28;20227;-76
2023/01/19 09:42:56;;;;;;;7.63;1.33;;;;;9.90;100257.00;;;;5047316;28;20216;-76
2023/01/19 09:45:29;;;;;;;3.83;1.02;;;;;10.00;100259.00;;;;5047763;28;20200;-76
2023/01/19 09:47:58;;;;;;;2.58;0.80;;;;;10.00;100259.00;;;;5058269;28;20230;-77
2023/01/19 09:50:28;;;;;;;3.22;0.70;;;;;10.00;100264.00;;;;5068461;28;20207;-77
2023/01/19 09:52:59;;;;;;;2.60;0.60;;;;;10.10;100259.00;;;;5060099;28;20195;-77
2023/01/19 09:55:29;;;;;;;2.55;1.05;;;;;10.10;100265.00;;;;5058372;28;20548;-77
2023/01/19 09:57:56;;;;;;;10.60;0.93;;;;;10.20;100276.00;;;;5056381;28;20207;-76
2023/01/19 10:00:26;;;;;;;1.48;0.52;;;;;10.20;100280.00;;;;5056218;28;20231;-76
2023/01/19 10:02:58;;;;;;;1.60;0.40;;;;;10.10;100272.00;;;;5052514;28;20194;-76
2023/01/19 10:05:31;;;;;;;2.83;0.68;;;;;10.20;100275.00;;;;5067992;28;20203;-76
2023/01/19 10:08:08;;;;;;;4.07;0.70;;;;;10.20;100281.00;;;;5060952;28;20203;-76
2023/01/19 10:10:41;;;;;;;3.35;0.73;;;;;10.20;100271.00;;;;5059933;28;20206;-76
2023/01/19 10:13:32;;;;;;;2.38;0.73;;;;;10.20;100279.00;;;;5068077;28;20195;-76
2023/01/19 10:16:24;;;;;;;4.20;0.60;;;;;10.20;100285.00;;;;5067087;28;20195;-76
2023/01/19 10:18:54;;;;;;;2.85;1.13;;;;;10.30;100288.00;;;;5049348;28;20199;-75
2023/01/19 10:21:27;;;;;;;4.18;0.60;;;;;10.30;100295.00;;;;5048046;28;20231;-76
2023/01/19 10:23:57;;;;;;;2.60;0.80;;;;;10.40;100285.00;;;;5047511;28;20193;-76
2023/01/19 10:26:27;;;;;;;1.88;0.43;;;;;10.40;100289.00;;;;5047139;28;20651;-76
2023/01/19 10:28:58;;;;;;;1.73;0.82;;;;;10.40;100287.00;;;;5059850;28;20211;-76
2023/01/19 10:31:25;;;;;;;4.35;0.82;;;;;10.50;100293.00;;;;5047553;28;20222;-75
2023/01/19 10:33:53;;;;;;;4.68;0.80;;;;;10.50;100292.00;;;;5047556;28;20295;-76
2023/01/19 10:36:25;;;;;;;5.93;1.27;;;;;10.60;100289.00;;;;5052426;28;20229;-75
2023/01/19 10:38:52;;;;;;;5.03;0.73;;;;;10.60;100288.00;;;;5052528;28;20199;-75
2023/01/19 10:41:27;;;;;;;2.58;0.70;;;;;10.60;100287.00;;;;5055377;28;20596;-75
2023/01/19 10:44:00;;;;;;;2.35;0.60;;;;;10.70;100294.00;;;;5052931;28;20554;-75
2023/01/19 10:46:37;;;;;;;3.28;1.00;;;;;10.70;100292.00;;;;5061562;28;20227;-76
2023/01/19 10:49:05;;;;;;;1.85;0.70;;;;;10.80;100296.00;;;;5066573;28;20197;-75
2023/01/19 10:51:32;;;;;;;2.50;0.88;;;;;10.80;100296.00;;;;5065923;28;20564;-75
2023/01/19 10:54:01;;;;;;;4.55;0.80;;;;;10.90;100291.00;;;;5048675;28;20206;-75
2023/01/19 10:56:34;;;;;;;3.65;0.80;;;;;10.90;100295.00;;;;5053779;28;20222;-75
2023/01/19 10:59:04;;;;;;;5.03;0.85;;;;;11.00;100295.00;;;;5066855;28;20206;-75
2023/01/19 11:01:35;;;;;;;4.63;1.30;;;;;11.00;100296.00;;;;5059840;28;20712;-75
2023/01/19 11:04:20;;;;;;;3.65;0.70;;;;;11.00;100292.00;;;;5054486;28;20198;-76
2023/01/19 11:06:48;;;;;;;3.78;0.70;;;;;11.10;100291.00;;;;5067994;28;20568;-75
2023/01/19 11:09:18;;;;;;;5.05;0.80;;;;;11.10;100290.00;;;;5057418;28;20230;-75
2023/01/19 11:11:49;;;;;;;3.03;0.60;;;;;11.10;100298.00;;;;5070113;28;20203;-76
2023/01/19 11:14:21;;;;;;;2.83;0.68;;;;;11.20;100301.00;;;;5062918;28;20199;-75
2023/01/19 11:16:51;;;;;;;6.10;0.90;;;;;11.20;100311.00;;;;5051088;28;20199;-75
2023/01/19 11:19:27;;;;;;;2.65;0.70;;;;;11.20;100304.00;;;;5050570;28;20199;-75
2023/01/19 11:22:09;;;;;;;3.33;0.60;;;;;11.20;100301.00;;;;5057140;28;20226;-75
2023/01/19 11:24:38;;;;;;;2.75;0.88;;;;;11.40;100305.00;;;;5070490;28;20430;-75
2023/01/19 11:27:07;;;;;;;5.35;1.13;;;;;11.40;100307.00;;;;5055466;28;20207;-76
2023/01/19 11:29:35;;;;;;;2.13;0.52;;;;;11.40;100310.00;;;;5050159;28;20680;-76
2023/01/19 11:32:19;;;;;;;1.77;0.43;;;;;11.40;100309.00;;;;5066509;28;20203;-77
2023/01/19 11:34:46;;;;;;;2.45;0.50;;;;;11.50;100306.00;;;;5058903;28;20202;-76
2023/01/19 11:37:33;;;;;;;3.25;0.70;;;;;11.40;100302.00;;;;5068969;28;20217;-76
2023/01/19 11:40:03;;;;;;;5.15;1.00;;;;;11.50;100305.00;;;;5067213;28;20209;-76
2023/01/19 11:42:36;;;;;;;5.22;1.00;;;;;11.50;100302.00;;;;5060290;28;20222;-76
2023/01/19 11:45:07;;;;;;;1.58;0.43;;;;;11.50;100308.00;;;;5066609;28;20191;-76
2023/01/19 11:47:41;;;;;;;0.98;0.40;;;;;11.50;100307.00;;;;5060898;28;20577;-76
2023/01/19 11:50:21;;;;;;;3.35;0.68;;;;;11.50;100303.00;;;;5070491;28;20290;-77
2023/01/19 11:52:53;;;;;;;1.15;0.30;;;;;11.50;100305.00;;;;5067794;28;20198;-77
2023/01/19 11:55:28;;;;;;;2.25;0.50;;;;;11.50;100302.00;;;;5054347;28;20183;-76
2023/01/19 11:57:57;;;;;;;2.38;0.40;;;;;11.40;100310.00;;;;5063632;28;20203;-76
2023/01/19 12:00:30;;;;;;;1.95;0.32;;;;;11.40;100308.00;;;;5065909;28;20227;-76
2023/01/19 12:03:04;;;;;;;3.47;0.28;;;;;11.40;100307.00;;;;5052108;28;20650;-77
2023/01/19 12:05:36;;;;;;;2.13;0.50;;;;;11.40;100310.00;;;;5050632;28;20675;-76
2023/01/19 12:08:09;;;;;;;3.67;0.25;;;;;11.40;100311.00;;;;5049862;28;20207;-76
2023/01/19 12:10:42;;;;;;;3.33;0.90;;;;;11.30;100314.00;;;;5049758;28;20198;-76
2023/01/19 12:13:21;;;;;;;1.25;0.47;;;;;11.30;100314.00;;;;5054532;28;20203;-76
2023/01/19 12:15:51;;;;;;;1.63;0.30;;;;;11.30;100317.00;;;;5070358;28;20210;-76
2023/01/19 12:18:22;;;;;;;1.02;0.10;;;;;11.30;100311.00;;;;5053453;28;20207;-77
2023/01/19 12:20:52;;;;;;;2.30;0.63;;;;;11.30;100317.00;;;;5068388;28;20276;-76
2023/01/19 12:23:35;;;;;;;1.08;0.32;;;;;11.30;100316.00;;;;5070968;28;20213;-76
2023/01/19 12:26:21;;;;;;;0.90;0.30;;;;;11.30;100319.00;;;;5070832;28;20199;-76
2023/01/19 12:28:52;;;;;;;1.05;0.47;;;;;11.30;100315.00;;;;5055349;28;20198;-76
2023/01/19 12:31:24;;;;;;;0.68;0.20;;;;;11.30;100309.00;;;;5049713;28;20622;-76
2023/01/19 12:33:52;;;;;;;0.90;0.25;;;;;11.30;100315.00;;;;5051351;28;20223;-76
2023/01/19 12:36:35;;;;;;;1.52;0.22;;;;;11.20;100317.00;;;;5058376;28;20203;-77
2023/01/19 12:39:04;;;;;;;1.40;0.40;;;;;11.20;100320.00;;;;5048385;28;20202;-76